Time;durP1;ratioP1;P1;durP2;ratioP2;P2;SDS_P1;SDS_P2;PMS_P1;PMS_P2;Temp;Humidity;BMP_temperature;BMP_pressure;BME280_temperature;BME280_humidity;BME280_pressure;Samples;Min_cycle;Max_cycle;Signal;HPM_P1;HPM_P2
2022/03/05 08:29:07;;;;;;;48.00;20.15;;;;;;;1.63;71.23;100983.53;6158070;23;20065;-94
2022/03/05 08:31:43;;;;;;;44.58;19.90;;;;;;;1.60;71.10;100957.44;6132216;23;20022;-92
2022/03/05 08:34:18;;;;;;;43.45;20.60;;;;;;;1.96;70.81;100997.41;6125737;23;20022;-93
2022/03/05 08:36:48;;;;;;;46.83;20.75;;;;;;;1.86;70.02;100959.13;6103024;23;20088;-93
2022/03/05 08:39:17;;;;;;;47.05;20.60;;;;;;;2.19;69.97;100994.75;6123269;23;20030;-93
2022/03/05 08:41:46;;;;;;;46.90;20.92;;;;;;;2.56;71.35;101019.84;6101405;23;20026;-92
2022/03/05 08:44:26;;;;;;;49.40;21.13;;;;;;;2.56;68.10;100958.84;6112064;23;20709;-94
2022/03/05 08:46:56;;;;;;;40.97;20.27;;;;;;;2.97;67.79;100984.75;6131414;23;20078;-95
2022/03/05 08:49:35;;;;;;;43.13;20.10;;;;;;;3.18;67.81;100956.69;6127875;23;20033;-95
2022/03/05 08:52:04;;;;;;;39.13;20.00;;;;;;;4.03;61.83;100994.31;6125813;23;20056;-92
2022/03/05 08:54:44;;;;;;;41.45;20.95;;;;;;;4.41;60.39;100978.09;6123306;23;20072;-92
2022/03/05 08:57:15;;;;;;;37.53;19.67;;;;;;;4.53;59.00;100977.97;6111984;23;20079;-93
2022/03/05 08:59:57;;;;;;;39.83;20.92;;;;;;;4.85;58.67;100960.94;6135504;23;20025;-93
2022/03/05 09:02:37;;;;;;;40.28;20.83;;;;;;;5.25;57.83;100977.78;6151889;23;20013;-93
2022/03/05 09:05:20;;;;;;;37.72;19.92;;;;;;;5.95;55.19;101013.41;6164545;23;20043;-94
2022/03/05 09:08:04;;;;;;;38.67;20.38;;;;;;;6.18;55.14;101004.22;6166709;23;20021;-94
2022/03/05 09:10:47;;;;;;;38.10;20.75;;;;;;;6.38;54.06;101017.84;6101717;23;20022;-92
2022/03/05 09:13:47;;;;;;;38.88;22.15;;;;;;;6.29;53.24;100968.94;6147885;23;20028;-94
2022/03/05 09:16:18;;;;;;;34.08;19.75;;;;;;;6.60;52.64;100974.44;6156949;23;20083;-92
2022/03/05 09:18:53;;;;;;;34.28;19.40;;;;;;;6.50;51.62;100943.94;6141056;23;20104;-92
2022/03/05 09:21:34;;;;;;;38.63;20.48;;;;;;;6.91;52.74;100989.53;6136329;23;20057;-93
2022/03/05 09:24:43;;;;;;;35.88;20.77;;;;;;;7.16;50.32;100959.09;6158869;23;20036;-96
2022/03/05 09:27:47;;;;;;;31.23;18.40;;;;;;;7.77;46.55;100996.22;6143498;23;20024;-96
2022/03/05 09:30:36;;;;;;;29.17;18.27;;;;;;;7.51;45.95;100944.19;6134280;23;20085;-96
2022/03/05 09:33:22;;;;;;;29.30;17.65;;;;;;;7.30;47.20;100943.81;6141853;23;20425;-93
2022/03/05 09:36:08;;;;;;;32.63;18.48;;;;;;;7.05;46.74;100945.31;6116775;23;20022;-93
2022/03/05 09:38:39;;;;;;;28.20;18.33;;;;;;;7.21;48.06;100994.09;6055258;23;20013;-95
2022/03/05 09:41:17;;;;;;;31.98;18.73;;;;;;;7.37;47.47;100969.13;6153850;23;20048;-93
2022/03/05 09:43:59;;;;;;;31.92;18.90;;;;;;;7.59;46.81;101002.81;6131304;23;20025;-94
2022/03/05 09:46:28;;;;;;;30.05;17.88;;;;;;;7.70;46.72;100979.72;6150568;23;20021;-94
2022/03/05 09:48:59;;;;;;;29.50;18.40;;;;;;;8.25;44.98;100994.03;6139990;23;20029;-93
2022/03/05 09:51:28;;;;;;;;;;;;;;;8.39;44.55;100997.19;6122450;23;20120;-93
2022/03/05 09:53:56;;;;;;;31.52;18.20;;;;;;;8.55;44.37;100971.22;6122527;23;19917;-95
2022/03/05 09:56:53;;;;;;;;;;;;;;;;;;;;;
2022/03/05 09:59:37;;;;;;;31.02;18.75;;;;;;;9.28;41.88;100948.69;6031846;23;20043;-94
2022/03/05 10:02:17;;;;;;;28.55;18.35;;;;;;;9.75;41.00;100968.25;6046804;23;20086;-93
2022/03/05 10:05:24;;;;;;;29.38;18.83;;;;;;;10.02;40.70;100981.41;6043170;23;20059;-95
2022/03/05 10:08:11;;;;;;;28.13;17.53;;;;;;;10.26;39.56;100922.31;6062085;23;20027;-93
2022/03/05 10:10:50;;;;;;;29.95;18.15;;;;;;;11.27;39.46;100984.63;6039010;23;20859;-94
2022/03/05 10:13:46;;;;;;;28.02;17.77;;;;;;;11.21;37.55;100915.00;6066576;23;20025;-93
2022/03/05 10:16:47;;;;;;;29.05;18.38;;;;;;;11.23;37.17;100926.41;6030009;23;20027;-94
2022/03/05 10:20:16;;;;;;;27.98;17.88;;;;;;;12.43;36.09;100972.56;6072092;23;20034;-92
2022/03/05 10:23:13;;;;;;;27.77;18.15;;;;;;;12.67;34.89;100979.41;6037851;23;20035;-93
2022/03/05 10:25:50;;;;;;;26.85;17.90;;;;;;;12.71;35.28;100951.78;6040305;23;20031;-93
2022/03/05 10:28:22;;;;;;;32.10;17.63;;;;;;;13.20;32.97;100933.50;6100825;23;20426;-93
2022/03/05 10:31:54;;;;;;;25.80;16.95;;;;;;;13.40;33.19;100969.72;6139952;23;20112;-92
2022/03/05 10:35:11;;;;;;;27.13;17.85;;;;;;;12.57;33.84;100901.94;6128145;23;20005;-94
2022/03/05 10:37:53;;;;;;;27.83;17.73;;;;;;;12.99;33.32;100906.13;6139578;23;20153;-94
2022/03/05 10:40:55;;;;;;;27.73;17.77;;;;;;;12.95;33.78;100929.31;6132320;23;20032;-94
2022/03/05 10:43:29;;;;;;;26.17;17.20;;;;;;;12.89;33.34;100928.78;6141680;23;20002;-95
2022/03/05 10:46:16;;;;;;;25.67;17.08;;;;;;;13.95;31.74;100962.50;6047668;23;20755;-94
2022/03/05 10:49:06;;;;;;;26.10;18.30;;;;;;;12.99;33.12;100909.63;6029695;23;20024;-94
2022/03/05 10:51:40;;;;;;;26.55;18.00;;;;;;;12.85;33.07;100927.19;6011435;23;20023;-94
2022/03/05 10:55:03;;;;;;;24.83;17.05;;;;;;;13.40;32.71;100961.75;6068838;23;20493;-91
2022/03/05 10:58:04;;;;;;;;;;;;;;;14.23;31.90;100961.91;6077837;23;20076;-96
2022/03/05 11:00:41;;;;;;;23.33;16.30;;;;;;;14.65;29.93;100876.97;6056398;23;19945;-95
2022/03/05 11:03:49;;;;;;;;;;;;;;;;;;;;;
2022/03/05 11:06:38;;;;;;;25.35;17.63;;;;;;;14.62;29.99;100905.63;6050470;23;20023;-96
2022/03/05 11:09:08;;;;;;;25.23;16.70;;;;;;;14.80;30.22;100922.38;6081675;23;20033;-94
2022/03/05 11:11:44;;;;;;;23.92;17.65;;;;;;;15.27;29.22;100922.34;6074881;23;20137;-94
2022/03/05 11:14:14;;;;;;;22.52;16.27;;;;;;;15.01;28.34;100908.69;6096197;23;20669;-92
2022/03/05 11:16:43;;;;;;;22.83;15.68;;;;;;;15.49;27.70;100896.13;6094887;23;20022;-94
2022/03/05 11:19:12;;;;;;;22.58;16.55;;;;;;;16.59;26.72;100908.06;6096766;23;20030;-94
2022/03/05 11:21:43;;;;;;;19.75;14.07;;;;;;;16.04;26.48;100872.31;6060510;23;20082;-94
2022/03/05 11:24:28;;;;;;;18.52;14.13;;;;;;;16.33;25.43;100891.00;6088205;23;20030;-94
2022/03/05 11:27:13;;;;;;;16.90;13.45;;;;;;;16.80;24.92;100922.78;6064307;23;20121;-92
2022/03/05 11:30:03;;;;;;;19.05;13.35;;;;;;;16.88;24.69;100908.88;6093917;23;20355;-95
2022/03/05 11:32:38;;;;;;;16.98;13.45;;;;;;;15.53;25.41;100846.09;6100073;23;20046;-92
2022/03/05 11:35:20;;;;;;;;;;;;;;;15.29;26.15;100921.28;6096443;23;20451;-94
2022/03/05 11:37:54;;;;;;;20.60;14.18;;;;;;;14.17;27.68;100909.78;6098712;23;19921;-93
2022/03/05 11:40:47;;;;;;;19.77;14.20;;;;;;;13.50;28.56;100920.47;6092267;23;20018;-94
2022/03/05 11:43:25;;;;;;;16.98;12.63;;;;;;;12.41;29.43;100905.38;6094757;23;20026;-93
2022/03/05 11:46:02;;;;;;;17.60;12.95;;;;;;;10.98;31.43;100885.09;6077669;23;20114;-91
2022/03/05 11:48:36;;;;;;;19.48;13.02;;;;;;;9.92;33.20;100843.28;6082916;23;20026;-94
2022/03/05 11:51:34;;;;;;;19.40;12.98;;;;;;;9.43;34.29;100882.09;6096816;23;20018;-92
2022/03/05 11:54:11;;;;;;;18.13;12.23;;;;;;;9.09;35.35;100885.00;6081877;23;20030;-91
2022/03/05 11:57:14;;;;;;;19.27;11.63;;;;;;;8.47;35.22;100852.69;6066683;23;20035;-90
2022/03/05 12:00:03;;;;;;;;;;;;;;;;;;;;;
2022/03/05 12:03:00;;;;;;;20.00;11.48;;;;;;;8.69;36.26;100908.31;6059322;23;20033;-92
2022/03/05 12:05:36;;;;;;;19.83;12.07;;;;;;;8.78;35.73;100885.13;6082468;23;20046;-93
2022/03/05 12:08:26;;;;;;;19.45;12.07;;;;;;;8.85;35.69;100882.28;6098533;23;20051;-92
2022/03/05 12:11:12;;;;;;;;;;;;;;;9.01;34.66;100897.59;6032351;23;20026;-92
2022/03/05 12:14:00;;;;;;;16.65;10.65;;;;;;;8.89;34.44;100878.63;6100050;23;19953;-92
2022/03/05 12:16:44;;;;;;;15.48;10.25;;;;;;;8.68;35.56;100896.00;6102238;23;20267;-91
2022/03/05 12:20:17;;;;;;;15.82;10.20;;;;;;;8.74;34.34;100885.28;6079232;23;20026;-92
2022/03/05 12:23:24;;;;;;;14.10;9.05;;;;;;;9.70;32.90;100839.72;6095686;23;20059;-93
2022/03/05 12:26:42;;;;;;;12.27;8.13;;;;;;;10.61;29.91;100857.41;6116856;23;20036;-90
2022/03/05 12:29:29;;;;;;;13.35;8.95;;;;;;;10.48;28.76;100803.22;5933907;23;2211002;-92
2022/03/05 12:32:31;;;;;;;;;;;;;;;11.07;29.19;100868.81;6096801;23;20082;-93
2022/03/05 12:35:21;;;;;;;13.32;8.65;;;;;;;10.44;30.11;100852.78;6084972;23;19924;-94
2022/03/05 12:37:52;;;;;;;14.43;9.63;;;;;;;10.25;30.19;100835.88;6078840;23;20031;-95
2022/03/05 12:40:28;;;;;;;12.63;8.02;;;;;;;10.09;30.48;100832.94;6054380;23;20055;-93
2022/03/05 12:43:08;;;;;;;14.77;8.93;;;;;;;11.50;28.95;100839.53;6094267;23;20021;-96
2022/03/05 12:46:00;;;;;;;12.50;8.55;;;;;;;13.64;25.88;100870.06;6088247;23;20168;-94
2022/03/05 12:48:29;;;;;;;11.02;8.05;;;;;;;14.82;24.74;100833.34;6065738;23;20117;-93
2022/03/05 12:50:56;;;;;;;12.07;8.30;;;;;;;15.65;23.26;100832.03;6079686;23;20026;-93
2022/03/05 12:53:31;;;;;;;13.98;8.90;;;;;;;14.98;23.45;100794.19;6091419;23;20030;-93
2022/03/05 12:55:59;;;;;;;12.02;9.00;;;;;;;14.63;24.04;100796.25;6092263;23;20022;-94
2022/03/05 12:58:37;;;;;;;12.07;8.40;;;;;;;15.79;22.41;100803.53;6094650;23;20026;-93
2022/03/05 13:01:09;;;;;;;12.25;9.05;;;;;;;17.08;20.89;100799.59;6093125;23;20070;-95
2022/03/05 13:03:50;;;;;;;12.07;9.18;;;;;;;18.05;19.72;100816.06;6064348;23;20026;-93
2022/03/05 13:06:19;;;;;;;12.90;9.55;;;;;;;18.06;19.89;100822.28;6118889;23;20454;-95
2022/03/05 13:08:47;;;;;;;11.05;8.90;;;;;;;18.79;19.08;100831.22;6125215;23;20073;-94
2022/03/05 13:11:23;;;;;;;10.90;7.85;;;;;;;19.21;18.51;100778.81;6100853;23;20477;-94
2022/03/05 13:13:54;;;;;;;9.98;7.90;;;;;;;19.60;18.41;100782.97;6098769;23;20030;-94
2022/03/05 13:16:25;;;;;;;8.77;7.70;;;;;;;20.95;17.07;100830.25;6119661;23;20006;-94
2022/03/05 13:19:02;;;;;;;10.55;8.30;;;;;;;20.83;17.06;100815.13;6123862;23;20077;-95
2022/03/05 13:21:48;;;;;;;;;;;;;;;21.43;16.86;100842.44;6127112;23;20451;-93
2022/03/05 13:24:18;;;;;;;10.75;8.38;;;;;;;21.05;16.27;100794.50;6123845;23;19921;-94
2022/03/05 13:26:49;;;;;;;11.43;8.70;;;;;;;20.92;15.97;100771.31;6129066;23;20018;-94
2022/03/05 13:29:17;;;;;;;10.15;8.20;;;;;;;19.55;17.87;100803.94;6108901;23;20023;-94
2022/03/05 13:31:46;;;;;;;10.55;8.60;;;;;;;18.46;18.63;100802.34;6123196;23;20056;-94
2022/03/05 13:34:24;;;;;;;10.70;8.35;;;;;;;18.40;19.00;100832.31;6094320;23;20398;-95
2022/03/05 13:36:58;;;;;;;10.75;8.85;;;;;;;18.32;19.54;100825.75;6098906;23;20040;-94
2022/03/05 13:39:34;;;;;;;10.95;9.23;;;;;;;17.58;19.54;100792.59;6092559;23;20026;-94
2022/03/05 13:42:15;;;;;;;13.10;9.48;;;;;;;15.89;21.26;100776.25;6098005;23;20026;-93
2022/03/05 13:45:00;;;;;;;12.73;9.75;;;;;;;14.84;22.88;100806.63;6098642;23;20022;-94
2022/03/05 13:47:30;;;;;;;12.20;9.20;;;;;;;14.47;23.84;100797.22;6093435;23;20452;-94
2022/03/05 13:50:25;;;;;;;11.77;8.98;;;;;;;14.46;23.74;100811.50;5996107;23;20028;-93
2022/03/05 13:52:56;;;;;;;12.95;9.23;;;;;;;14.16;24.20;100822.88;6015864;23;20044;-94
2022/03/05 13:55:28;;;;;;;12.13;9.45;;;;;;;13.32;24.91;100806.06;6014908;23;20058;-94
2022/03/05 13:57:55;;;;;;;;;;;;;;;12.69;26.44;100819.91;6006308;23;20714;-93
2022/03/05 14:00:36;;;;;;;14.00;9.95;;;;;;;12.24;26.59;100792.84;5970150;23;19970;-95
2022/03/05 14:03:16;;;;;;;14.80;10.02;;;;;;;13.09;26.94;100797.50;6007671;23;20052;-95
2022/03/05 14:05:43;;;;;;;14.15;9.88;;;;;;;13.65;24.86;100808.78;6004425;23;20392;-93
2022/03/05 14:08:24;;;;;;;13.95;10.18;;;;;;;12.75;26.20;100791.22;6006683;23;20064;-93
2022/03/05 14:10:55;;;;;;;14.90;9.68;;;;;;;11.76;28.03;100752.66;6008886;23;20566;-93
2022/03/05 14:13:26;;;;;;;14.63;9.90;;;;;;;11.53;27.97;100815.53;6009903;23;20038;-93
2022/03/05 14:15:55;;;;;;;13.63;8.93;;;;;;;10.67;29.18;100817.47;6114912;23;20018;-93
2022/03/05 14:18:23;;;;;;;14.35;9.93;;;;;;;9.91;30.43;100764.00;6129131;23;20032;-91
2022/03/05 14:20:51;;;;;;;15.50;10.18;;;;;;;9.74;30.90;100772.56;6127132;23;20030;-95
2022/03/05 14:23:20;;;;;;;16.80;10.43;;;;;;;9.68;31.19;100786.00;6126886;23;20032;-93
2022/03/05 14:26:06;;;;;;;15.63;10.30;;;;;;;9.69;31.71;100815.06;6122079;23;20026;-95
2022/03/05 14:28:35;;;;;;;14.90;9.40;;;;;;;9.47;32.03;100793.81;6136042;23;20128;-94
2022/03/05 14:31:03;;;;;;;14.85;9.73;;;;;;;9.59;31.58;100791.66;6133695;23;20033;-95
2022/03/05 14:33:32;;;;;;;13.88;9.88;;;;;;;9.75;31.18;100795.47;6139930;23;20021;-95
2022/03/05 14:36:02;;;;;;;15.65;9.15;;;;;;;10.14;30.92;100790.44;6140422;23;20034;-95
2022/03/05 14:38:30;;;;;;;13.93;9.20;;;;;;;12.03;27.90;100788.53;6103789;23;20042;-94
2022/03/05 14:40:58;;;;;;;14.60;9.57;;;;;;;12.92;25.74;100763.81;6122809;23;20018;-95
2022/03/05 14:43:26;;;;;;;13.25;9.07;;;;;;;13.25;26.07;100767.41;6136288;23;20046;-94
2022/03/05 14:46:00;;;;;;;13.05;8.93;;;;;;;13.29;25.87;100762.81;6125630;23;20483;-94
2022/03/05 14:48:29;;;;;;;14.52;9.38;;;;;;;13.27;25.85;100777.97;6124735;23;20319;-93
2022/03/05 14:50:56;;;;;;;13.70;9.18;;;;;;;12.71;26.11;100755.13;6113397;23;20061;-95
2022/03/05 14:53:25;;;;;;;12.52;8.77;;;;;;;12.48;26.84;100755.41;6125465;23;20022;-95
2022/03/05 14:55:53;;;;;;;12.32;8.52;;;;;;;12.01;27.23;100790.38;6081456;23;20057;-94
2022/03/05 14:58:40;;;;;;;13.10;8.40;;;;;;;11.38;28.42;100802.94;6094870;23;20412;-94
2022/03/05 15:01:08;;;;;;;11.98;8.30;;;;;;;10.79;29.08;100790.47;6097965;23;20027;-94
2022/03/05 15:03:39;;;;;;;12.52;8.40;;;;;;;10.43;29.37;100799.91;6065260;23;20628;-95
2022/03/05 15:06:07;;;;;;;11.77;8.25;;;;;;;10.15;29.81;100776.28;6062958;23;20027;-95
2022/03/05 15:08:36;;;;;;;13.95;9.00;;;;;;;10.17;30.04;100806.19;6064903;23;20586;-95
2022/03/05 15:11:03;;;;;;;12.52;8.23;;;;;;;9.67;30.31;100749.91;6064636;23;20027;-92
2022/03/05 15:13:32;;;;;;;12.85;8.98;;;;;;;9.70;30.49;100757.75;6061262;23;20019;-95
2022/03/05 15:16:13;;;;;;;15.05;9.00;;;;;;;9.46;30.44;100755.06;6047197;23;20027;-95
2022/03/05 15:18:58;;;;;;;15.27;9.00;;;;;;;9.55;31.30;100801.47;6065845;23;20019;-94
2022/03/05 15:21:43;;;;;;;13.40;8.63;;;;;;;9.28;32.35;100803.34;6058759;23;20026;-94
2022/03/05 15:24:12;;;;;;;13.80;8.88;;;;;;;8.95;32.09;100746.38;6051636;23;20082;-93
2022/03/05 15:26:42;;;;;;;12.00;8.18;;;;;;;8.98;31.74;100773.53;6066081;23;20034;-94
2022/03/05 15:29:17;;;;;;;12.38;8.18;;;;;;;9.00;31.95;100821.03;6105544;23;20029;-94
2022/03/05 15:31:45;;;;;;;11.95;7.90;;;;;;;8.62;32.68;100786.22;6084462;23;20527;-93
2022/03/05 15:34:13;;;;;;;12.52;8.38;;;;;;;8.41;33.42;100774.56;6102559;23;20031;-92
2022/03/05 15:36:44;;;;;;;12.77;8.45;;;;;;;8.18;33.47;100773.53;6094655;23;20085;-93
2022/03/05 15:39:12;;;;;;;12.48;8.02;;;;;;;8.21;33.57;100805.94;6096358;23;20613;-94
2022/03/05 15:41:40;;;;;;;15.43;8.25;;;;;;;7.83;33.50;100761.41;6094766;23;20027;-93
2022/03/05 15:44:08;;;;;;;13.30;8.30;;;;;;;8.03;33.67;100807.34;6082107;23;20340;-94
2022/03/05 15:46:37;;;;;;;11.45;7.55;;;;;;;7.75;34.03;100756.34;6096590;23;20014;-94
2022/03/05 15:49:09;;;;;;;14.10;8.07;;;;;;;7.87;33.92;100768.34;6072063;23;20030;-93
2022/03/05 15:51:39;;;;;;;13.75;9.07;;;;;;;8.06;33.54;100796.72;6072215;23;20023;-94
2022/03/05 15:54:21;;;;;;;15.80;9.32;;;;;;;8.03;33.91;100777.47;6080669;23;20030;-94
2022/03/05 15:57:02;;;;;;;14.77;8.90;;;;;;;8.06;33.76;100780.91;6081176;23;20030;-94
2022/03/05 15:59:46;;;;;;;12.05;8.13;;;;;;;8.21;34.09;100800.66;6096187;23;20052;-93
2022/03/05 16:02:13;;;;;;;10.97;8.00;;;;;;;8.09;34.24;100783.44;6077256;23;20033;-94
2022/03/05 16:05:06;;;;;;;12.93;8.18;;;;;;;7.88;33.71;100757.72;6095613;23;20023;-93
2022/03/05 16:07:47;;;;;;;13.65;8.35;;;;;;;7.73;34.26;100755.53;6026805;23;20355;-94
2022/03/05 16:10:18;;;;;;;14.38;9.32;;;;;;;7.84;34.02;100765.78;6084483;23;20037;-93
2022/03/05 16:13:01;;;;;;;12.32;8.35;;;;;;;7.84;34.39;100776.34;6095096;23;20020;-94
2022/03/05 16:15:33;;;;;;;12.85;8.20;;;;;;;7.69;34.07;100759.19;6095263;23;20339;-93
2022/03/05 16:18:04;;;;;;;11.63;8.60;;;;;;;7.81;34.45;100789.59;6067294;23;20018;-92
2022/03/05 16:20:33;;;;;;;13.98;8.85;;;;;;;7.45;34.79;100744.06;6095659;23;20022;-94
2022/03/05 16:23:14;;;;;;;16.15;9.85;;;;;;;7.51;35.04;100791.34;6080134;23;20014;-93
2022/03/05 16:25:43;;;;;;;14.48;9.00;;;;;;;7.35;35.72;100791.78;6073042;23;20022;-93
2022/03/05 16:28:11;;;;;;;14.82;8.68;;;;;;;7.39;35.83;100803.97;6055140;23;20026;-92
2022/03/05 16:31:26;;;;;;;13.77;8.80;;;;;;;7.01;35.83;100767.25;6037447;23;20139;-92
2022/03/05 16:33:56;;;;;;;14.30;9.00;;;;;;;7.21;35.99;100790.41;6037595;23;20054;-92
2022/03/05 16:36:27;;;;;;;12.25;8.10;;;;;;;7.08;36.08;100779.34;6094069;23;20105;-92
2022/03/05 16:39:10;;;;;;;15.07;8.63;;;;;;;7.21;36.83;100815.00;6009591;23;20022;-92
2022/03/05 16:41:51;;;;;;;13.95;8.50;;;;;;;7.10;36.35;100801.22;6005509;23;20027;-93
2022/03/05 16:44:41;;;;;;;12.57;7.95;;;;;;;6.89;36.00;100767.56;6019811;23;20028;-93
2022/03/05 16:47:15;;;;;;;12.90;8.82;;;;;;;7.01;36.70;100809.38;6018258;23;20048;-93
2022/03/05 16:49:56;;;;;;;13.60;8.52;;;;;;;6.84;36.85;100793.13;5956745;24;20024;-93
2022/03/05 16:52:44;;;;;;;13.43;8.55;;;;;;;6.91;36.54;100808.75;5960333;23;20021;-93
2022/03/05 16:55:11;;;;;;;16.52;9.23;;;;;;;6.89;36.44;100817.59;5953072;24;20569;-94
2022/03/05 16:57:39;;;;;;;12.95;8.57;;;;;;;6.50;36.39;100783.44;5962384;24;20028;-93
2022/03/05 17:00:22;;;;;;;14.20;8.65;;;;;;;6.40;37.02;100787.19;5938096;24;20032;-92
2022/03/05 17:02:49;;;;;;;14.93;9.23;;;;;;;6.26;37.28;100774.38;5953327;24;20158;-92
2022/03/05 17:05:17;;;;;;;13.18;8.75;;;;;;;6.31;37.57;100797.91;5952860;24;20104;-94
2022/03/05 17:07:45;;;;;;;16.35;8.55;;;;;;;6.36;36.83;100803.09;5928458;24;20081;-94
2022/03/05 17:10:33;;;;;;;12.85;8.10;;;;;;;6.24;37.63;100798.97;5996370;23;20416;-93
2022/03/05 17:13:14;;;;;;;14.23;8.30;;;;;;;6.12;37.75;100797.50;5992672;23;20028;-95
2022/03/05 17:15:43;;;;;;;12.55;7.80;;;;;;;5.89;38.06;100766.44;6100374;23;20029;-94
2022/03/05 17:18:13;;;;;;;13.40;8.65;;;;;;;6.10;38.42;100825.59;6090325;23;20028;-94
2022/03/05 17:20:57;;;;;;;13.95;8.10;;;;;;;5.89;38.36;100805.88;6123328;23;20025;-93
2022/03/05 17:23:34;;;;;;;14.77;8.50;;;;;;;5.63;38.52;100769.59;6113160;23;20034;-93
2022/03/05 17:26:05;;;;;;;12.85;8.05;;;;;;;5.67;38.40;100775.63;6100900;23;20096;-95
2022/03/05 17:28:34;;;;;;;14.82;8.60;;;;;;;5.85;38.36;100798.91;6085149;23;20022;-93
2022/03/05 17:31:01;;;;;;;12.35;8.43;;;;;;;6.02;37.83;100827.50;6127609;23;20034;-93
2022/03/05 17:33:30;;;;;;;12.77;8.43;;;;;;;5.65;38.67;100787.97;6123449;23;20014;-93
2022/03/05 17:35:57;;;;;;;14.27;8.23;;;;;;;5.57;38.63;100784.63;6110740;23;20026;-93
2022/03/05 17:38:34;;;;;;;17.67;8.82;;;;;;;5.46;39.24;100791.84;6095677;23;20026;-94
2022/03/05 17:41:05;;;;;;;12.73;7.73;;;;;;;5.48;39.09;100811.94;6087995;23;20026;-93
2022/03/05 17:44:15;;;;;;;17.90;8.50;;;;;;;5.59;39.09;100827.50;6124176;23;20053;-94
2022/03/05 17:46:48;;;;;;;14.15;8.07;;;;;;;5.54;39.24;100834.59;6126916;23;20026;-93
2022/03/05 17:49:31;;;;;;;14.95;9.13;;;;;;;5.54;39.51;100832.81;6085585;23;20074;-93
2022/03/05 17:52:06;;;;;;;14.85;9.10;;;;;;;5.52;39.67;100839.00;6138238;23;20092;-92
2022/03/05 17:54:34;;;;;;;13.80;8.93;;;;;;;5.32;40.42;100807.88;6141297;23;20021;-92
2022/03/05 18:00:17;;;;;;;13.25;8.80;;;;;;;5.50;39.90;100856.56;6132236;23;20105;-93
2022/03/05 18:02:49;;;;;;;17.50;9.48;;;;;;;5.41;40.25;100840.97;6104367;23;20056;-93
2022/03/05 18:05:37;;;;;;;15.02;9.07;;;;;;;5.51;40.07;100860.94;6090933;23;20034;-93
2022/03/05 18:08:09;;;;;;;14.65;9.00;;;;;;;5.29;40.47;100834.19;6099811;23;20370;-92
2022/03/05 18:10:36;;;;;;;13.65;8.95;;;;;;;5.16;40.72;100817.81;6115669;23;20014;-92
2022/03/05 18:13:03;;;;;;;12.88;8.27;;;;;;;5.00;40.61;100811.09;6090632;23;20058;-93
2022/03/05 18:15:44;;;;;;;14.55;8.85;;;;;;;5.08;40.88;100827.56;6119295;23;20014;-93
2022/03/05 18:18:34;;;;;;;17.98;9.95;;;;;;;5.35;40.79;100864.75;6117647;23;20022;-93
2022/03/05 18:21:20;;;;;;;17.20;9.43;;;;;;;5.27;41.09;100860.47;6132821;23;20076;-93
2022/03/05 18:24:04;;;;;;;15.65;9.40;;;;;;;4.99;41.50;100837.38;6133668;23;20049;-92
2022/03/05 18:26:40;;;;;;;15.98;9.32;;;;;;;5.08;41.57;100855.56;6104755;23;20489;-94
2022/03/05 18:29:13;;;;;;;14.75;8.80;;;;;;;4.80;40.98;100816.69;6118081;23;20025;-91
2022/03/05 18:32:15;;;;;;;17.05;9.05;;;;;;;5.18;41.08;100872.91;6031484;23;20030;-94
2022/03/05 18:34:56;;;;;;;14.07;8.90;;;;;;;4.87;41.21;100838.44;6038915;23;20034;-93
2022/03/05 18:37:23;;;;;;;13.63;8.82;;;;;;;4.93;41.57;100859.31;6038490;23;20087;-93
2022/03/05 18:39:59;;;;;;;;;;;;;;;5.07;41.34;100877.47;6040287;23;20055;-93
2022/03/05 18:42:48;;;;;;;15.48;8.90;;;;;;;4.79;41.30;100837.69;6035732;23;20210;-93
2022/03/05 18:45:15;;;;;;;17.05;9.20;;;;;;;4.80;41.20;100842.91;6028587;23;20033;-92
2022/03/05 18:47:43;;;;;;;13.10;8.45;;;;;;;4.92;41.13;100868.06;6023718;23;20039;-91
2022/03/05 18:50:33;;;;;;;13.25;8.50;;;;;;;4.82;41.01;100856.88;6042869;23;20023;-92
2022/03/05 18:53:29;;;;;;;15.90;9.30;;;;;;;5.06;41.40;100900.22;6030056;23;20042;-91
2022/03/05 19:00:09;;;;;;;14.85;8.75;;;;;;;5.26;39.56;100887.63;6073808;23;20068;-93
2022/03/05 19:02:51;;;;;;;13.38;8.52;;;;;;;5.29;39.70;100903.34;6072550;23;20179;-93
2022/03/05 19:06:01;;;;;;;13.13;8.57;;;;;;;5.20;39.98;100897.34;6098688;23;20034;-92
2022/03/05 19:08:47;;;;;;;14.35;8.25;;;;;;;4.94;39.67;100866.31;6075111;23;20023;-93
2022/03/05 19:11:55;;;;;;;14.57;8.93;;;;;;;5.01;40.76;100890.69;6053178;23;20038;-92
2022/03/05 19:14:24;;;;;;;15.23;9.50;;;;;;;4.96;41.41;100876.78;6068385;23;20053;-93
2022/03/05 19:16:58;;;;;;;14.65;8.70;;;;;;;4.84;40.48;100856.84;6093495;23;20037;-93
2022/03/05 19:19:27;;;;;;;14.18;9.05;;;;;;;4.95;40.45;100886.41;6088575;23;20042;-92
2022/03/05 19:22:04;;;;;;;14.20;8.95;;;;;;;4.98;40.46;100911.75;6105441;23;20046;-94
2022/03/05 19:24:40;;;;;;;14.10;8.98;;;;;;;4.93;41.15;100903.94;6071668;23;20018;-95
2022/03/05 19:27:09;;;;;;;;;;;;;;;4.92;41.11;100902.19;6102456;23;20018;-96
2022/03/05 19:29:50;;;;;;;18.15;10.07;;;;;;;4.71;40.81;100871.06;6035490;23;19928;-96
2022/03/05 19:32:30;;;;;;;25.38;12.43;;;;;;;4.44;40.83;100841.72;6026712;23;20023;-94
2022/03/05 19:35:20;;;;;;;16.30;10.23;;;;;;;4.43;40.92;100847.84;6026293;23;20099;-94
2022/03/05 19:38:12;;;;;;;15.80;10.13;;;;;;;4.68;41.24;100908.69;6055758;23;20030;-95
2022/03/05 19:40:53;;;;;;;14.57;8.80;;;;;;;4.28;40.71;100855.94;6032555;23;20033;-93
2022/03/05 19:44:14;;;;;;;17.02;8.88;;;;;;;4.41;40.58;100875.84;6063942;23;20677;-91
2022/03/05 19:46:53;;;;;;;14.15;8.88;;;;;;;4.45;40.68;100893.28;6052510;23;20029;-94
2022/03/05 19:49:46;;;;;;;14.15;8.52;;;;;;;4.47;40.87;100895.88;6072261;23;20057;-93
2022/03/05 19:52:26;;;;;;;13.63;8.77;;;;;;;4.14;40.62;100852.63;6045776;23;20045;-91
2022/03/05 19:54:55;;;;;;;17.97;9.23;;;;;;;4.32;41.30;100898.72;6067964;23;20051;-91
2022/03/05 19:57:30;;;;;;;15.02;9.38;;;;;;;4.15;41.40;100875.34;6059416;23;20611;-92
2022/03/05 19:59:59;;;;;;;18.02;9.57;;;;;;;4.19;41.81;100880.53;6074050;23;20022;-92
2022/03/05 20:02:26;;;;;;;17.40;9.43;;;;;;;4.18;42.20;100884.03;6051886;23;20490;-90
2022/03/05 20:05:16;;;;;;;15.18;9.18;;;;;;;4.14;42.16;100886.72;5966685;24;20040;-92
2022/03/05 20:07:49;;;;;;;16.23;9.13;;;;;;;4.05;42.45;100884.22;6033647;23;20047;-94
2022/03/05 20:10:33;;;;;;;16.92;9.80;;;;;;;4.03;42.54;100880.75;6057186;23;20011;-92
2022/03/05 20:13:13;;;;;;;14.95;9.48;;;;;;;3.87;43.06;100869.59;6058827;23;20042;-93
2022/03/05 20:15:58;;;;;;;16.88;9.85;;;;;;;4.02;42.76;100899.97;6054763;23;20046;-94
2022/03/05 20:19:00;;;;;;;14.85;9.65;;;;;;;4.13;43.04;100925.16;6028921;23;20033;-92
2022/03/05 20:21:30;;;;;;;14.52;9.18;;;;;;;3.90;43.27;100893.13;6000012;23;20023;-92
2022/03/05 20:24:00;;;;;;;17.55;10.00;;;;;;;3.91;43.09;100897.50;6025323;23;20018;-94
2022/03/05 20:26:29;;;;;;;14.70;9.20;;;;;;;3.90;43.18;100895.75;6023228;23;20025;-93
2022/03/05 20:29:12;;;;;;;15.32;10.07;;;;;;;3.82;42.91;100890.59;6026136;23;20029;-93
2022/03/05 20:31:41;;;;;;;13.85;9.15;;;;;;;3.77;42.99;100881.06;6034764;23;20031;-92
2022/03/05 20:34:09;;;;;;;15.20;9.88;;;;;;;3.94;42.55;100899.19;6045944;23;20030;-93
2022/03/05 20:36:41;;;;;;;16.65;9.82;;;;;;;3.75;43.28;100868.00;6068699;23;20103;-94
2022/03/05 20:39:47;;;;;;;18.85;9.88;;;;;;;4.14;42.81;100936.50;6066435;23;20035;-94
2022/03/05 20:42:15;;;;;;;15.98;9.00;;;;;;;3.79;42.56;100882.75;6080521;23;20015;-94
2022/03/05 20:44:43;;;;;;;13.85;9.13;;;;;;;4.14;42.65;100936.50;6062730;23;20031;-94
2022/03/05 20:47:13;;;;;;;16.48;9.50;;;;;;;3.74;43.01;100874.13;6070433;23;20050;-95
2022/03/05 20:49:40;;;;;;;17.67;9.95;;;;;;;3.80;42.88;100881.88;6063290;23;20023;-94
2022/03/05 20:52:17;;;;;;;15.57;9.93;;;;;;;3.85;42.37;100890.56;6070089;23;20030;-94
2022/03/05 20:55:03;;;;;;;15.10;9.45;;;;;;;4.03;42.92;100917.44;6064981;23;20495;-95
2022/03/05 20:57:34;;;;;;;15.20;8.60;;;;;;;3.83;42.85;100887.09;6067486;23;20022;-95